sensor_id;sensor_type;location;lat;lon;timestamp;pressure;altitude;pressure_sealevel;temperature;humidity
31162;BME280;17796;49.296;-117.656;2023-12-20T00:11:21;95700;;;4.50071;100.0
31162;BME280;17796;49.296;-117.656;2023-12-20T00:26:25;95700;;;4.26189;100.0
31162;BME280;17796;49.296;-117.656;2023-12-20T00:41:28;95700;;;4.36542;100.0
31162;BME280;17796;49.296;-117.656;2023-12-20T00:56:33;95700;;;4.24506;100.0
31162;BME280;17796;49.296;-117.656;2023-12-20T01:11:36;95700;;;4.45561;100.0
31162;BME280;17796;49.296;-117.656;2023-12-20T01:26:40;95700;;;4.56359;100.0
31162;BME280;17796;49.296;-117.656;2023-12-20T01:41:44;95800;;;4.24029;100.0
31162;BME280;17796;49.296;-117.656;2023-12-20T01:56:48;95700;;;3.79219;100.0
31162;BME280;17796;49.296;-117.656;2023-12-20T02:11:53;95800;;;4.04435;100.0
31162;BME280;17796;49.296;-117.656;2023-12-20T02:26:57;95800;;;4.45244;100.0
31162;BME280;17796;49.296;-117.656;2023-12-20T02:42:01;95800;;;4.6722;100.0
31162;BME280;17796;49.296;-117.656;2023-12-20T02:57:05;95800;;;3.66199;100.0
31162;BME280;17796;49.296;-117.656;2023-12-20T03:12:10;95800;;;4.24569;100.0
31162;BME280;17796;49.296;-117.656;2023-12-20T03:27:13;95800;;;4.15074;100.0
31162;BME280;17796;49.296;-117.656;2023-12-20T03:42:17;95800;;;4.58264;100.0
31162;BME280;17796;49.296;-117.656;2023-12-20T03:57:21;95800;;;3.38633;100.0
31162;BME280;17796;49.296;-117.656;2023-12-20T04:12:24;95900;;;3.94654;100.0
31162;BME280;17796;49.296;-117.656;2023-12-20T04:27:29;95900;;;3.76774;100.0
31162;BME280;17796;49.296;-117.656;2023-12-20T04:42:33;95900;;;3.52162;100.0
31162;BME280;17796;49.296;-117.656;2023-12-20T04:57:36;95900;;;3.95035;100.0
31162;BME280;17796;49.296;-117.656;2023-12-20T05:12:40;95900;;;3.96019;100.0
31162;BME280;17796;49.296;-117.656;2023-12-20T05:27:44;95900;;;4.27237;100.0
31162;BME280;17796;49.296;-117.656;2023-12-20T05:42:48;95900;;;4.7173;100.0
31162;BME280;17796;49.296;-117.656;2023-12-20T05:57:53;95900;;;4.35272;100.0
31162;BME280;17796;49.296;-117.656;2023-12-20T06:12:58;95900;;;4.0164;100.0
31162;BME280;17796;49.296;-117.656;2023-12-20T06:28:01;95900;;;3.67818;100.0
31162;BME280;17796;49.296;-117.656;2023-12-20T06:43:05;96000;;;4.12787;100.0
31162;BME280;17796;49.296;-117.656;2023-12-20T06:58:09;96000;;;4.14788;100.0
31162;BME280;17796;49.296;-117.656;2023-12-20T07:13:13;96000;;;4.24982;100.0
31162;BME280;17796;49.296;-117.656;2023-12-20T07:28:16;96000;;;4.32541;100.0
31162;BME280;17796;49.296;-117.656;2023-12-20T07:43:20;96000;;;4.11898;100.0
31162;BME280;17796;49.296;-117.656;2023-12-20T07:58:24;96000;;;3.99449;100.0
31162;BME280;17796;49.296;-117.656;2023-12-20T08:13:27;96000;;;4.13232;100.0
31162;BME280;17796;49.296;-117.656;2023-12-20T08:28:31;96000;;;3.61784;100.0
31162;BME280;17796;49.296;-117.656;2023-12-20T08:43:35;96000;;;3.23294;100.0
31162;BME280;17796;49.296;-117.656;2023-12-20T08:58:38;96000;;;3.60482;100.0
31162;BME280;17796;49.296;-117.656;2023-12-20T09:13:42;96000;;;4.35843;100.0
31162;BME280;17796;49.296;-117.656;2023-12-20T09:28:46;96000;;;3.60578;100.0
31162;BME280;17796;49.296;-117.656;2023-12-20T09:43:49;96000;;;4.25236;100.0
31162;BME280;17796;49.296;-117.656;2023-12-20T09:58:56;96100;;;4.25681;100.0
31162;BME280;17796;49.296;-117.656;2023-12-20T10:14:01;96100;;;3.86015;100.0
31162;BME280;17796;49.296;-117.656;2023-12-20T10:29:05;96100;;;4.13422;100.0
31162;BME280;17796;49.296;-117.656;2023-12-20T10:44:09;96100;;;4.15169;100.0
31162;BME280;17796;49.296;-117.656;2023-12-20T10:59:15;96100;;;4.11676;100.0
31162;BME280;17796;49.296;-117.656;2023-12-20T11:14:23;96100;;;4.29809;100.0
31162;BME280;17796;49.296;-117.656;2023-12-20T11:29:32;96100;;;4.34573;100.0
31162;BME280;17796;49.296;-117.656;2023-12-20T11:44:38;96100;;;4.31175;100.0
31162;BME280;17796;49.296;-117.656;2023-12-20T11:59:45;96100;;;4.34764;100.0
31162;BME280;17796;49.296;-117.656;2023-12-20T12:14:49;96100;;;3.48446;100.0
31162;BME280;17796;49.296;-117.656;2023-12-20T12:30:08;96100;;;3.04812;100.0
31162;BME280;17796;49.296;-117.656;2023-12-20T12:45:12;96200;;;3.76393;100.0
31162;BME280;17796;49.296;-117.656;2023-12-20T13:00:16;96200;;;4.32032;100.0
31162;BME280;17796;49.296;-117.656;2023-12-20T13:15:20;96200;;;4.48673;100.0
31162;BME280;17796;49.296;-117.656;2023-12-20T13:30:24;96200;;;4.48356;100.0
31162;BME280;17796;49.296;-117.656;2023-12-20T13:45:28;96200;;;3.70041;100.0
31162;BME280;17796;49.296;-117.656;2023-12-20T14:00:31;96200;;;4.22727;100.0
31162;BME280;17796;49.296;-117.656;2023-12-20T14:15:35;96200;;;4.21394;100.0
31162;BME280;17796;49.296;-117.656;2023-12-20T14:30:38;96200;;;3.73408;100.0
31162;BME280;17796;49.296;-117.656;2023-12-20T14:45:42;96200;;;4.05197;100.0
31162;BME280;17796;49.296;-117.656;2023-12-20T15:00:46;96200;;;3.45652;100.0
31162;BME280;17796;49.296;-117.656;2023-12-20T15:15:49;96200;;;3.79664;100.0
31162;BME280;17796;49.296;-117.656;2023-12-20T15:30:53;96200;;;3.95448;100.0
31162;BME280;17796;49.296;-117.656;2023-12-20T15:45:58;96200;;;4.34192;100.0
31162;BME280;17796;49.296;-117.656;2023-12-20T16:01:02;96200;;;4.6903;100.0
31162;BME280;17796;49.296;-117.656;2023-12-20T16:16:06;96300;;;4.70586;100.0
31162;BME280;17796;49.296;-117.656;2023-12-20T16:31:10;96300;;;4.38479;100.0
31162;BME280;17796;49.296;-117.656;2023-12-20T16:46:25;96300;;;4.44958;100.0
31162;BME280;17796;49.296;-117.656;2023-12-20T17:01:28;96300;;;3.54448;100.0
31162;BME280;17796;49.296;-117.656;2023-12-20T17:16:32;96300;;;4.73064;100.0
31162;BME280;17796;49.296;-117.656;2023-12-20T17:31:36;96300;;;4.64108;100.0
31162;BME280;17796;49.296;-117.656;2023-12-20T17:46:39;96300;;;4.85925;100.0
31162;BME280;17796;49.296;-117.656;2023-12-20T18:01:43;96300;;;4.7138;100.0
31162;BME280;17796;49.296;-117.656;2023-12-20T18:16:48;96300;;;5.43154;100.0
31162;BME280;17796;49.296;-117.656;2023-12-20T18:31:52;96300;;;5.59604;100.0
31162;BME280;17796;49.296;-117.656;2023-12-20T18:46:56;96300;;;5.70529;100.0
31162;BME280;17796;49.296;-117.656;2023-12-20T19:01:59;96300;;;5.67322;100.0
31162;BME280;17796;49.296;-117.656;2023-12-20T19:17:03;96300;;;5.53062;100.0
31162;BME280;17796;49.296;-117.656;2023-12-20T19:32:07;96300;;;5.55984;100.0
31162;BME280;17796;49.296;-117.656;2023-12-20T19:47:11;96300;;;5.43884;100.0
31162;BME280;17796;49.296;-117.656;2023-12-20T20:02:15;96300;;;4.8456;100.0
31162;BME280;17796;49.296;-117.656;2023-12-20T20:17:18;96200;;;5.24194;100.0
31162;BME280;17796;49.296;-117.656;2023-12-20T20:32:22;96200;;;5.06441;100.0
31162;BME280;17796;49.296;-117.656;2023-12-20T20:47:26;96200;;;5.54047;100.0
31162;BME280;17796;49.296;-117.656;2023-12-20T21:02:29;96200;;;5.37437;100.0
31162;BME280;17796;49.296;-117.656;2023-12-20T21:17:34;96200;;;5.46329;100.0
31162;BME280;17796;49.296;-117.656;2023-12-20T21:32:38;96200;;;6.26964;100.0
31162;BME280;17796;49.296;-117.656;2023-12-20T21:47:41;96200;;;5.81263;100.0
31162;BME280;17796;49.296;-117.656;2023-12-20T22:02:46;96200;;;5.32959;100.0
31162;BME280;17796;49.296;-117.656;2023-12-20T22:17:50;96200;;;6.17436;100.0
31162;BME280;17796;49.296;-117.656;2023-12-20T22:32:54;96200;;;5.56428;100.0
31162;BME280;17796;49.296;-117.656;2023-12-20T22:47:58;96200;;;5.76531;100.0
31162;BME280;17796;49.296;-117.656;2023-12-20T23:03:02;96200;;;6.30902;100.0
31162;BME280;17796;49.296;-117.656;2023-12-20T23:18:06;96300;;;6.05622;100.0
31162;BME280;17796;49.296;-117.656;2023-12-20T23:33:09;96300;;;5.6729;100.0
31162;BME280;17796;49.296;-117.656;2023-12-20T23:48:13;96300;;;5.60811;100.0
